Time;durP1;ratioP1;P1;durP2;ratioP2;P2;SDS_P1;SDS_P2;PMS_P1;PMS_P2;Temp;Humidity;BMP_temperature;BMP_pressure;BME280_temperature;BME280_humidity;BME280_pressure;Samples;Min_cycle;Max_cycle;Signal;HPM_P1;HPM_P2
2021/01/10 00:00:15;;;;;;;;;;;;;;;;;;5066954;28;19970;-74
2021/01/10 00:02:41;;;;;;;;;;;;;;;;;;5066639;28;19924;-73
2021/01/10 00:05:07;;;;;;;;;;;;;;;;;;5064288;28;19931;-74
2021/01/10 00:07:33;;;;;;;;;;;;;;;;;;5050786;28;20437;-74
2021/01/10 00:09:59;;;;;;;;;;;;;;;;;;5043138;28;19925;-74
2021/01/10 00:12:25;;;;;;;;;;;;;;;;;;5046976;28;19924;-74
2021/01/10 00:14:51;;;;;;;;;;;;;;;;;;5044647;28;20286;-73
2021/01/10 00:17:17;;;;;;;;;;;;;;;;;;5045279;28;19940;-74
2021/01/10 00:19:43;;;;;;;;;;;;;;;;;;5046059;28;20337;-74
2021/01/10 00:22:09;;;;;;;;;;;;;;;;;;5043648;28;19929;-74
2021/01/10 00:24:34;;;;;;;;;;;;;;;;;;5038254;28;19925;-75
2021/01/10 00:27:02;;;;;;;;;;;;;;;;;;5042449;28;20527;-74
2021/01/10 00:29:28;;;;;;;;;;;;;;;;;;5046495;28;20333;-74
2021/01/10 00:31:54;;;;;;;;;;;;;;;;;;5043711;28;19929;-74
2021/01/10 00:34:20;;;;;;;;;;;;;;;;;;5045809;28;19935;-74
2021/01/10 00:36:46;;;;;;;;;;;;;;;;;;5045082;28;19925;-74
2021/01/10 00:39:12;;;;;;;;;;;;;;;;;;5034026;28;20028;-74
2021/01/10 00:41:38;;;;;;;;;;;;;;;;;;5046382;28;19932;-74
2021/01/10 00:44:04;;;;;;;;;;;;;;;;;;5042668;28;20366;-74
2021/01/10 00:46:30;;;;;;;;;;;;;;;;;;5046171;28;19971;-74
2021/01/10 00:48:56;;;;;;;;;;;;;;;;;;5044107;28;19924;-75
2021/01/10 00:51:22;;;;;;;;;;;;;;;;;;5046513;28;19925;-74
2021/01/10 00:53:48;;;;;;;;;;;;;;;;;;5058053;28;19973;-74
2021/01/10 00:56:14;;;;;;;;;;;;;;;;;;5041020;28;19933;-74
2021/01/10 00:58:40;;;;;;;;;;;;;;;;;;5047027;28;19932;-74
2021/01/10 01:01:06;;;;;;;;;;;;;;;;;;5043602;28;19931;-74
2021/01/10 01:03:32;;;;;;;;;;;;;;;;;;5063323;28;19924;-73
2021/01/10 01:05:58;;;;;;;;;;;;;;;;;;5063806;28;19924;-75
2021/01/10 01:08:24;;;;;;;;;;;;;;;;;;5066170;28;19924;-74
2021/01/10 01:10:50;;;;;;;;;;;;;;;;;;5038030;28;19975;-74
2021/01/10 01:13:16;;;;;;;;;;;;;;;;;;5044632;28;19929;-75
2021/01/10 01:15:42;;;;;;;;;;;;;;;;;;5045489;28;19925;-74
2021/01/10 01:18:08;;;;;;;;;;;;;;;;;;5043471;28;19932;-74
2021/01/10 01:20:34;;;;;;;;;;;;;;;;;;5045941;28;19925;-74
2021/01/10 01:23:00;;;;;;;;;;;;;;;;;;5042229;28;19925;-74
2021/01/10 01:25:25;;;;;;;;;;;;;;;;;;5041685;28;19924;-74
2021/01/10 01:27:51;;;;;;;;;;;;;;;;;;5066519;28;19924;-74
2021/01/10 01:30:17;;;;;;;;;;;;;;;;;;5067158;28;19928;-74
2021/01/10 01:32:43;;;;;;;;;;;;;;;;;;5067520;28;19931;-74
2021/01/10 01:35:09;;;;;;;;;;;;;;;;;;5064622;28;20267;-74
2021/01/10 01:37:35;;;;;;;;;;;;;;;;;;5066955;28;19946;-74
2021/01/10 01:40:01;;;;;;;;;;;;;;;;;;5051953;28;19932;-73
2021/01/10 01:42:27;;;;;;;;;;;;;;;;;;5046468;28;20301;-74
2021/01/10 01:44:53;;;;;;;;;;;;;;;;;;5043513;28;19924;-74
2021/01/10 01:47:19;;;;;;;;;;;;;;;;;;5045351;28;19925;-74
2021/01/10 01:49:45;;;;;;;;;;;;;;;;;;5045057;28;19931;-73
2021/01/10 01:52:11;;;;;;;;;;;;;;;;;;5059746;28;19925;-73
2021/01/10 01:54:37;;;;;;;;;;;;;;;;;;5069492;28;19931;-73
2021/01/10 01:57:03;;;;;;;;;;;;;;;;;;5036981;28;19932;-73
2021/01/10 01:59:29;;;;;;;;;;;;;;;;;;5048117;28;19924;-73
2021/01/10 02:01:55;;;;;;;;;;;;;;;;;;5046616;28;19932;-74
2021/01/10 02:04:21;;;;;;;;;;;;;;;;;;5048629;28;19955;-74
2021/01/10 02:06:47;;;;;;;;;;;;;;;;;;5047978;28;19925;-74
2021/01/10 02:09:13;;;;;;;;;;;;;;;;;;5047295;28;19929;-74
2021/01/10 02:11:42;;;;;;;;;;;;;;;;;;5046484;28;20065;-74
2021/01/10 02:14:08;;;;;;;;;;;;;;;;;;5066236;28;20759;-73
2021/01/10 02:16:34;;;;;;;;;;;;;;;;;;5069314;28;19924;-73
2021/01/10 02:19:00;;;;;;;;;;;;;;;;;;5065179;28;19924;-75
2021/01/10 02:21:26;;;;;;;;;;;;;;;;;;5069041;28;19931;-75
2021/01/10 02:23:52;;;;;;;;;;;;;;;;;;5066770;28;19925;-74
2021/01/10 02:26:18;;;;;;;;;;;;;;;;;;5067787;28;19924;-75
2021/01/10 02:28:44;;;;;;;;;;;;;;;;;;5042534;28;20290;-74
2021/01/10 02:31:10;;;;;;;;;;;;;;;;;;5046384;28;19924;-74
2021/01/10 02:33:35;;;;;;;;;;;;;;;;;;5048858;28;19925;-74
2021/01/10 02:36:01;;;;;;;;;;;;;;;;;;5045074;28;20716;-74
2021/01/10 02:38:27;;;;;;;;;;;;;;;;;;5048752;28;19932;-74
2021/01/10 02:40:53;;;;;;;;;;;;;;;;;;5046228;28;20043;-75
2021/01/10 02:43:19;;;;;;;;;;;;;;;;;;5039035;28;19948;-75
2021/01/10 02:45:45;;;;;;;;;;;;;;;;;;5047396;28;20385;-75
2021/01/10 02:48:11;;;;;;;;;;;;;;;;;;5046061;28;20027;-75
2021/01/10 02:50:37;;;;;;;;;;;;;;;;;;5063374;28;19932;-75
2021/01/10 02:53:03;;;;;;;;;;;;;;;;;;5064559;28;19931;-75
2021/01/10 02:55:29;;;;;;;;;;;;;;;;;;5068222;28;19936;-75
2021/01/10 02:57:55;;;;;;;;;;;;;;;;;;5052339;28;19974;-75
2021/01/10 03:00:21;;;;;;;;;;;;;;;;;;5047457;28;20413;-74
2021/01/10 03:02:47;;;;;;;;;;;;;;;;;;5050811;28;19924;-74
2021/01/10 03:05:13;;;;;;;;;;;;;;;;;;5065157;28;19925;-74
2021/01/10 03:07:39;;;;;;;;;;;;;;;;;;5068399;28;19924;-73
2021/01/10 03:10:05;;;;;;;;;;;;;;;;;;5064900;28;20375;-73
2021/01/10 03:12:31;;;;;;;;;;;;;;;;;;5057536;28;19928;-75
2021/01/10 03:14:57;;;;;;;;;;;;;;;;;;5064804;28;20290;-75
2021/01/10 03:17:23;;;;;;;;;;;;;;;;;;5067798;28;19928;-75
2021/01/10 03:19:49;;;;;;;;;;;;;;;;;;5066323;28;20332;-75
2021/01/10 03:22:15;;;;;;;;;;;;;;;;;;5065888;28;20378;-75
2021/01/10 03:24:41;;;;;;;;;;;;;;;;;;5067373;28;19935;-75
2021/01/10 03:27:07;;;;;;;;;;;;;;;;;;5064560;28;19925;-75
2021/01/10 03:29:33;;;;;;;;;;;;;;;;;;5043583;28;19932;-75
2021/01/10 03:31:59;;;;;;;;;;;;;;;;;;5044189;28;19925;-73
2021/01/10 03:34:25;;;;;;;;;;;;;;;;;;5047659;28;19936;-73
2021/01/10 03:36:50;;;;;;;;;;;;;;;;;;5046061;28;19966;-73
2021/01/10 03:39:16;;;;;;;;;;;;;;;;;;5046519;28;19925;-73
2021/01/10 03:41:43;;;;;;;;;;;;;;;;;;5046449;28;19938;-74
2021/01/10 03:44:08;;;;;;;;;;;;;;;;;;5045704;28;21076;-73
2021/01/10 03:46:34;;;;;;;;;;;;;;;;;;5057009;28;19924;-73
2021/01/10 03:49:00;;;;;;;;;;;;;;;;;;5066696;28;19925;-73
2021/01/10 03:51:26;;;;;;;;;;;;;;;;;;5074524;28;19924;-73
2021/01/10 03:53:52;;;;;;;;;;;;;;;;;;5064931;28;19932;-73
2021/01/10 03:56:18;;;;;;;;;;;;;;;;;;5066476;28;19936;-75
2021/01/10 03:58:44;;;;;;;;;;;;;;;;;;5066444;28;19924;-75
2021/01/10 04:01:10;;;;;;;;;;;;;;;;;;5044389;28;19986;-73
2021/01/10 04:03:36;;;;;;;;;;;;;;;;;;5047650;28;19970;-73
2021/01/10 04:06:02;;;;;;;;;;;;;;;;;;5044688;28;19925;-73
2021/01/10 04:08:28;;;;;;;;;;;;;;;;;;5048487;28;19932;-73
2021/01/10 04:10:54;;;;;;;;;;;;;;;;;;5046051;28;19925;-73
2021/01/10 04:13:20;;;;;;;;;;;;;;;;;;5047249;28;19929;-73
2021/01/10 04:15:46;;;;;;;;;;;;;;;;;;5044894;28;19932;-74
2021/01/10 04:18:12;;;;;;;;;;;;;;;;;;5065805;28;19924;-73
2021/01/10 04:20:38;;;;;;;;;;;;;;;;;;5067636;28;19949;-73
2021/01/10 04:23:04;;;;;;;;;;;;;;;;;;5063747;28;19946;-74
2021/01/10 04:25:30;;;;;;;;;;;;;;;;;;5066796;28;20383;-73
2021/01/10 04:27:56;;;;;;;;;;;;;;;;;;5064215;28;19925;-73
2021/01/10 04:30:22;;;;;;;;;;;;;;;;;;5066067;28;19968;-74
2021/01/10 04:32:48;;;;;;;;;;;;;;;;;;5039769;28;19925;-74
2021/01/10 04:35:14;;;;;;;;;;;;;;;;;;5045477;28;20353;-73
2021/01/10 04:37:40;;;;;;;;;;;;;;;;;;5046576;28;19932;-74
2021/01/10 04:40:06;;;;;;;;;;;;;;;;;;5043158;28;20267;-73
2021/01/10 04:42:32;;;;;;;;;;;;;;;;;;5051151;28;19947;-73
2021/01/10 04:44:58;;;;;;;;;;;;;;;;;;5043828;28;20298;-73
2021/01/10 04:47:24;;;;;;;;;;;;;;;;;;5050102;28;19925;-73
2021/01/10 04:49:50;;;;;;;;;;;;;;;;;;5065065;28;19924;-73
2021/01/10 04:52:16;;;;;;;;;;;;;;;;;;5065212;28;19931;-74
2021/01/10 04:54:41;;;;;;;;;;;;;;;;;;5065866;28;19932;-73
2021/01/10 04:57:07;;;;;;;;;;;;;;;;;;5063522;28;19924;-73
2021/01/10 04:59:33;;;;;;;;;;;;;;;;;;5066372;28;19925;-74
2021/01/10 05:01:59;;;;;;;;;;;;;;;;;;5051980;28;20913;-74
2021/01/10 05:04:25;;;;;;;;;;;;;;;;;;5045851;28;19925;-74
2021/01/10 05:06:51;;;;;;;;;;;;;;;;;;5043976;28;19951;-73
2021/01/10 05:09:17;;;;;;;;;;;;;;;;;;5044725;28;19925;-73
2021/01/10 05:11:43;;;;;;;;;;;;;;;;;;5045657;28;19932;-74
2021/01/10 05:14:09;;;;;;;;;;;;;;;;;;5043284;28;19928;-74
2021/01/10 05:16:35;;;;;;;;;;;;;;;;;;5046013;28;19925;-73
2021/01/10 05:19:01;;;;;;;;;;;;;;;;;;5043823;28;19947;-72
2021/01/10 05:21:27;;;;;;;;;;;;;;;;;;5066520;28;20258;-74
2021/01/10 05:23:52;;;;;;;;;;;;;;;;;;5064370;28;19925;-72
2021/01/10 05:26:19;;;;;;;;;;;;;;;;;;5065382;28;19924;-74
2021/01/10 05:28:45;;;;;;;;;;;;;;;;;;5067052;28;19924;-73
2021/01/10 05:31:10;;;;;;;;;;;;;;;;;;5067813;28;19974;-74
2021/01/10 05:33:36;;;;;;;;;;;;;;;;;;5070022;28;19978;-73
2021/01/10 05:36:02;;;;;;;;;;;;;;;;;;5038282;28;19931;-73
2021/01/10 05:38:28;;;;;;;;;;;;;;;;;;5049780;28;19925;-74
2021/01/10 05:40:54;;;;;;;;;;;;;;;;;;5047417;28;19936;-73
2021/01/10 05:43:20;;;;;;;;;;;;;;;;;;5049021;28;19933;-74
2021/01/10 05:45:46;;;;;;;;;;;;;;;;;;5058480;28;19932;-74
2021/01/10 05:48:12;;;;;;;;;;;;;;;;;;5067689;28;20232;-74
2021/01/10 05:50:38;;;;;;;;;;;;;;;;;;5045009;28;19925;-74
2021/01/10 05:53:04;;;;;;;;;;;;;;;;;;5046334;28;20063;-74
2021/01/10 05:55:30;;;;;;;;;;;;;;;;;;5049421;28;20263;-74
2021/01/10 05:57:55;;;;;;;;;;;;;;;;;;5046860;28;19924;-74
2021/01/10 06:00:21;;;;;;;;;;;;;;;;;;5048685;28;20286;-74
2021/01/10 06:02:47;;;;;;;;;;;;;;;;;;5047983;28;19925;-74
2021/01/10 06:05:13;;;;;;;;;;;;;;;;;;5049180;28;20433;-75
2021/01/10 06:07:39;;;;;;;;;;;;;;;;;;5069776;28;19924;-73
2021/01/10 06:10:05;;;;;;;;;;;;;;;;;;5066108;28;20263;-73
2021/01/10 06:12:31;;;;;;;;;;;;;;;;;;5069638;28;19928;-75
2021/01/10 06:14:57;;;;;;;;;;;;;;;;;;5065744;28;20378;-75
2021/01/10 06:17:23;;;;;;;;;;;;;;;;;;5069023;28;19931;-75
2021/01/10 06:19:49;;;;;;;;;;;;;;;;;;5061735;28;20297;-72
2021/01/10 06:22:15;;;;;;;;;;;;;;;;;;5043576;28;19960;-73
2021/01/10 06:24:40;;;;;;;;;;;;;;;;;;5048944;28;19925;-73
2021/01/10 06:27:06;;;;;;;;;;;;;;;;;;5045939;28;20342;-75
2021/01/10 06:29:32;;;;;;;;;;;;;;;;;;5048763;28;19951;-74
2021/01/10 06:31:59;;;;;;;;;;;;;;;;;;5045678;28;19925;-73
2021/01/10 06:34:25;;;;;;;;;;;;;;;;;;5048854;28;19925;-72
2021/01/10 06:36:51;;;;;;;;;;;;;;;;;;5038854;28;19976;-73
2021/01/10 06:39:18;;;;;;;;;;;;;;;;;;5047005;28;19932;-73
2021/01/10 06:41:44;;;;;;;;;;;;;;;;;;5048139;28;19932;-75
2021/01/10 06:44:09;;;;;;;;;;;;;;;;;;5054601;28;19951;-73
2021/01/10 06:46:35;;;;;;;;;;;;;;;;;;5068549;28;19925;-73
2021/01/10 06:49:01;;;;;;;;;;;;;;;;;;5065375;28;19924;-74
2021/01/10 06:51:27;;;;;;;;;;;;;;;;;;5057745;28;20289;-74
2021/01/10 06:53:53;;;;;;;;;;;;;;;;;;5066282;28;20404;-73
2021/01/10 06:56:19;;;;;;;;;;;;;;;;;;5068421;28;19932;-73
2021/01/10 06:58:45;;;;;;;;;;;;;;;;;;5067845;28;20348;-73
2021/01/10 07:01:11;;;;;;;;;;;;;;;;;;5066657;28;19929;-74
2021/01/10 07:03:37;;;;;;;;;;;;;;;;;;5068800;28;20380;-73
2021/01/10 07:06:06;;;;;;;;;;;;;;;;;;5049647;28;23746;-73
2021/01/10 07:08:32;;;;;;;;;;;;;;;;;;5050246;28;20028;-73
2021/01/10 07:10:58;;;;;;;;;;;;;;;;;;5065444;28;19924;-73
2021/01/10 07:13:24;;;;;;;;;;;;;;;;;;5068003;28;19924;-73
2021/01/10 07:15:49;;;;;;;;;;;;;;;;;;5066528;28;19932;-73
2021/01/10 07:18:15;;;;;;;;;;;;;;;;;;5067148;28;19925;-73
2021/01/10 07:20:41;;;;;;;;;;;;;;;;;;5066362;28;19929;-74
2021/01/10 07:23:07;;;;;;;;;;;;;;;;;;5056696;28;20349;-73
2021/01/10 07:25:33;;;;;;;;;;;;;;;;;;5068324;28;19924;-73
2021/01/10 07:27:59;;;;;;;;;;;;;;;;;;5064318;28;20027;-72
2021/01/10 07:30:25;;;;;;;;;;;;;;;;;;5072637;28;19924;-75
2021/01/10 07:32:51;;;;;;;;;;;;;;;;;;5068594;28;19978;-74
2021/01/10 07:35:17;;;;;;;;;;;;;;;;;;5071402;28;19954;-73
2021/01/10 07:37:43;;;;;;;;;;;;;;;;;;5053148;28;20290;-73
2021/01/10 07:40:09;;;;;;;;;;;;;;;;;;5045528;28;19929;-73
2021/01/10 07:42:35;;;;;;;;;;;;;;;;;;5054796;28;19924;-74
2021/01/10 07:45:02;;;;;;;;;;;;;;;;;;5064453;28;19925;-74
2021/01/10 07:47:28;;;;;;;;;;;;;;;;;;5067727;28;19924;-75
2021/01/10 07:49:56;;;;;;;;;;;;;;;;;;5065531;28;20343;-73
2021/01/10 07:52:22;;;;;;;;;;;;;;;;;;5066862;28;20021;-73
2021/01/10 07:54:47;;;;;;;;;;;;;;;;;;5039891;28;19924;-74
2021/01/10 07:57:13;;;;;;;;;;;;;;;;;;5045314;28;19920;-74
2021/01/10 07:59:39;;;;;;;;;;;;;;;;;;5047319;28;19924;-74
2021/01/10 08:02:04;;;;;;;;;;;;;;;;;;5044487;28;19924;-74
2021/01/10 08:04:30;;;;;;;;;;;;;;;;;;5067296;28;19924;-73
2021/01/10 08:06:56;;;;;;;;;;;;;;;;;;5057352;28;19925;-72
2021/01/10 08:09:22;;;;;;;;;;;;;;;;;;5042110;28;19955;-73
2021/01/10 08:11:48;;;;;;;;;;;;;;;;;;5058860;28;19978;-74
2021/01/10 08:14:14;;;;;;;;;;;;;;;;;;5065428;28;19924;-73
2021/01/10 08:16:40;;;;;;;;;;;;;;;;;;5067302;28;20361;-74
2021/01/10 08:19:07;;;;;;;;;;;;;;;;;;5064163;28;19931;-73
2021/01/10 08:21:32;;;;;;;;;;;;;;;;;;5067018;28;19948;-73
2021/01/10 08:23:58;;;;;;;;;;;;;;;;;;5044868;28;19925;-75
2021/01/10 08:26:24;;;;;;;;;;;;;;;;;;5047085;28;19925;-73
2021/01/10 08:28:50;;;;;;;;;;;;;;;;;;5045371;28;20397;-73
2021/01/10 08:31:16;;;;;;;;;;;;;;;;;;5045715;28;19932;-75
2021/01/10 08:33:42;;;;;;;;;;;;;;;;;;5046292;28;19933;-73
2021/01/10 08:36:08;;;;;;;;;;;;;;;;;;5044707;28;19925;-74
2021/01/10 08:38:34;;;;;;;;;;;;;;;;;;5046875;28;20298;-73
2021/01/10 08:40:59;;;;;;;;;;;;;;;;;;5050770;28;20397;-74
2021/01/10 08:43:25;;;;;;;;;;;;;;;;;;5066734;28;19924;-72
2021/01/10 08:45:51;;;;;;;;;;;;;;;;;;5064627;28;19928;-73
2021/01/10 08:48:17;;;;;;;;;;;;;;;;;;5064068;28;19932;-73
2021/01/10 08:50:43;;;;;;;;;;;;;;;;;;5065119;28;20029;-73
2021/01/10 08:53:09;;;;;;;;;;;;;;;;;;5063962;28;19925;-73
2021/01/10 08:55:35;;;;;;;;;;;;;;;;;;5050646;28;20297;-74
2021/01/10 08:58:01;;;;;;;;;;;;;;;;;;5042694;28;19932;-73
2021/01/10 09:00:26;;;;;;;;;;;;;;;;;;5046492;28;20023;-73
2021/01/10 09:02:52;;;;;;;;;;;;;;;;;;5043787;28;20352;-73
2021/01/10 09:05:18;;;;;;;;;;;;;;;;;;5045008;28;19952;-73
2021/01/10 09:07:44;;;;;;;;;;;;;;;;;;5045514;28;19924;-73
2021/01/10 09:10:10;;;;;;;;;;;;;;;;;;5035259;28;19955;-74
2021/01/10 09:12:36;;;;;;;;;;;;;;;;;;5046193;28;19932;-76
2021/01/10 09:15:02;;;;;;;;;;;;;;;;;;5042637;28;19924;-73
2021/01/10 09:17:28;;;;;;;;;;;;;;;;;;5046066;28;19925;-72
2021/01/10 09:19:54;;;;;;;;;;;;;;;;;;5043373;28;19943;-73
2021/01/10 09:22:19;;;;;;;;;;;;;;;;;;5044825;28;20469;-73
2021/01/10 09:24:45;;;;;;;;;;;;;;;;;;5059124;28;19925;-73
2021/01/10 09:27:11;;;;;;;;;;;;;;;;;;5042635;28;19929;-74
2021/01/10 09:29:37;;;;;;;;;;;;;;;;;;5046487;28;20294;-72
2021/01/10 09:32:03;;;;;;;;;;;;;;;;;;5042494;28;20421;-75
2021/01/10 09:34:29;;;;;;;;;;;;;;;;;;5045886;28;19924;-75
2021/01/10 09:36:55;;;;;;;;;;;;;;;;;;5043281;28;19931;-73
2021/01/10 09:39:21;;;;;;;;;;;;;;;;;;5048058;28;19925;-72
2021/01/10 09:41:47;;;;;;;;;;;;;;;;;;5059661;28;20278;-73
2021/01/10 09:44:13;;;;;;;;;;;;;;;;;;5039967;28;19924;-73
2021/01/10 09:46:39;;;;;;;;;;;;;;;;;;5045985;28;19932;-73
2021/01/10 09:49:05;;;;;;;;;;;;;;;;;;5042370;28;20397;-73
2021/01/10 09:51:31;;;;;;;;;;;;;;;;;;5045987;28;19932;-73
2021/01/10 09:53:57;;;;;;;;;;;;;;;;;;5042523;28;19975;-73
2021/01/10 09:56:23;;;;;;;;;;;;;;;;;;5045838;28;20290;-73
2021/01/10 09:58:49;;;;;;;;;;;;;;;;;;5035521;28;19929;-73
2021/01/10 10:01:15;;;;;;;;;;;;;;;;;;5043901;28;20380;-73
2021/01/10 10:03:41;;;;;;;;;;;;;;;;;;5047845;28;19925;-74
2021/01/10 10:06:07;;;;;;;;;;;;;;;;;;5060417;28;19924;-73
2021/01/10 10:08:33;;;;;;;;;;;;;;;;;;5065950;28;19931;-73
2021/01/10 10:10:59;;;;;;;;;;;;;;;;;;5061808;28;19932;-72
2021/01/10 10:13:26;;;;;;;;;;;;;;;;;;5051441;28;20011;-73
2021/01/10 10:15:54;;;;;;;;;;;;;;;;;;5045462;28;19991;-76
2021/01/10 10:18:21;;;;;;;;;;;;;;;;;;5048341;28;20394;-73
2021/01/10 10:20:47;;;;;;;;;;;;;;;;;;5047717;28;19925;-74
2021/01/10 10:23:13;;;;;;;;;;;;;;;;;;5047450;28;19929;-73
2021/01/10 10:25:39;;;;;;;;;;;;;;;;;;5049622;28;20374;-74
2021/01/10 10:28:05;;;;;;;;;;;;;;;;;;5046116;28;19932;-75
2021/01/10 10:30:31;;;;;;;;;;;;;;;;;;5053345;28;20003;-74
2021/01/10 10:32:57;;;;;;;;;;;;;;;;;;5065736;28;19925;-74
2021/01/10 10:35:23;;;;;;;;;;;;;;;;;;5068956;28;19925;-74
2021/01/10 10:37:49;;;;;;;;;;;;;;;;;;5066875;28;19925;-74
2021/01/10 10:40:15;;;;;;;;;;;;;;;;;;5066990;28;19931;-75
2021/01/10 10:42:40;;;;;;;;;;;;;;;;;;5069223;28;19924;-75
2021/01/10 10:45:06;;;;;;;;;;;;;;;;;;5045747;28;20345;-75
2021/01/10 10:47:32;;;;;;;;;;;;;;;;;;5049302;28;19929;-76
2021/01/10 10:49:58;;;;;;;;;;;;;;;;;;5045923;28;19939;-74
2021/01/10 10:52:24;;;;;;;;;;;;;;;;;;5048968;28;19974;-75
2021/01/10 10:54:50;;;;;;;;;;;;;;;;;;5050465;28;19932;-75
2021/01/10 10:57:16;;;;;;;;;;;;;;;;;;5060746;28;19924;-74
2021/01/10 10:59:42;;;;;;;;;;;;;;;;;;5061972;28;19959;-76
2021/01/10 11:02:09;;;;;;;;;;;;;;;;;;5053704;28;19925;-75
2021/01/10 11:04:35;;;;;;;;;;;;;;;;;;5056661;28;20388;-74
2021/01/10 11:07:01;;;;;;;;;;;;;;;;;;5046290;28;19925;-75
2021/01/10 11:09:27;;;;;;;;;;;;;;;;;;5049684;28;19925;-75
2021/01/10 11:11:53;;;;;;;;;;;;;;;;;;5047430;28;20325;-75
2021/01/10 11:14:19;;;;;;;;;;;;;;;;;;5048761;28;19925;-73
2021/01/10 11:16:48;;;;;;;;;;;;;;;;;;5046494;28;20294;-73
2021/01/10 11:19:14;;;;;;;;;;;;;;;;;;5067125;28;19924;-74
2021/01/10 11:21:40;;;;;;;;;;;;;;;;;;5068722;28;19947;-73
2021/01/10 11:24:06;;;;;;;;;;;;;;;;;;5065760;28;20297;-74
2021/01/10 11:26:32;;;;;;;;;;;;;;;;;;5068296;28;19928;-74
2021/01/10 11:28:57;;;;;;;;;;;;;;;;;;5066234;28;20344;-74
2021/01/10 11:31:23;;;;;;;;;;;;;;;;;;5055753;28;19932;-75
2021/01/10 11:33:49;;;;;;;;;;;;;;;;;;5048210;28;19925;-75
2021/01/10 11:36:15;;;;;;;;;;;;;;;;;;5049631;28;19925;-74
2021/01/10 11:38:41;;;;;;;;;;;;;;;;;;5068288;28;20286;-74
2021/01/10 11:41:07;;;;;;;;;;;;;;;;;;5066257;28;19925;-75
2021/01/10 11:43:33;;;;;;;;;;;;;;;;;;5071276;28;20416;-73
2021/01/10 11:45:59;;;;;;;;;;;;;;;;;;5056095;28;20527;-73
2021/01/10 11:48:24;;;;;;;;;;;;;;;;;;5048038;28;19924;-74
2021/01/10 11:50:50;;;;;;;;;;;;;;;;;;5045982;28;19932;-75
2021/01/10 11:53:16;;;;;;;;;;;;;;;;;;5046759;28;19925;-73
2021/01/10 11:55:42;;;;;;;;;;;;;;;;;;5046480;28;19929;-74
2021/01/10 11:58:08;;;;;;;;;;;;;;;;;;5044580;28;20417;-74
2021/01/10 12:00:34;;;;;;;;;;;;;;;;;;5047796;28;19932;-75
2021/01/10 12:03:00;;;;;;;;;;;;;;;;;;5044233;28;19946;-75
2021/01/10 12:05:26;;;;;;;;;;;;;;;;;;5064678;28;19970;-74
2021/01/10 12:07:52;;;;;;;;;;;;;;;;;;5064965;28;19935;-76
2021/01/10 12:10:18;;;;;;;;;;;;;;;;;;5066214;28;19924;-74
2021/01/10 12:12:44;;;;;;;;;;;;;;;;;;5066245;28;20348;-76
2021/01/10 12:15:10;;;;;;;;;;;;;;;;;;5064498;28;19925;-75
2021/01/10 12:17:36;;;;;;;;;;;;;;;;;;5050955;28;19925;-73
2021/01/10 12:20:02;;;;;;;;;;;;;;;;;;5043705;28;19925;-74
2021/01/10 12:22:28;;;;;;;;;;;;;;;;;;5047098;28;19925;-74
2021/01/10 12:24:54;;;;;;;;;;;;;;;;;;5046395;28;20314;-73
2021/01/10 12:27:19;;;;;;;;;;;;;;;;;;5049190;28;19931;-75
2021/01/10 12:29:45;;;;;;;;;;;;;;;;;;5049650;28;20455;-73
2021/01/10 12:32:11;;;;;;;;;;;;;;;;;;5047416;28;19952;-76
2021/01/10 12:34:37;;;;;;;;;;;;;;;;;;5054825;28;19924;-75
2021/01/10 12:37:03;;;;;;;;;;;;;;;;;;5065413;28;19925;-74
2021/01/10 12:39:29;;;;;;;;;;;;;;;;;;5069940;28;19925;-74
2021/01/10 12:41:55;;;;;;;;;;;;;;;;;;5067946;28;20266;-76
2021/01/10 12:44:21;;;;;;;;;;;;;;;;;;5067534;28;19947;-75
2021/01/10 12:46:47;;;;;;;;;;;;;;;;;;5065959;28;20377;-76
2021/01/10 12:49:13;;;;;;;;;;;;;;;;;;5046779;28;19924;-74
2021/01/10 12:51:39;;;;;;;;;;;;;;;;;;5050691;28;19925;-76
2021/01/10 12:54:05;;;;;;;;;;;;;;;;;;5046761;28;20349;-75
2021/01/10 12:56:31;;;;;;;;;;;;;;;;;;5050906;28;19971;-75
2021/01/10 12:58:57;;;;;;;;;;;;;;;;;;5047625;28;20344;-76
2021/01/10 13:01:23;;;;;;;;;;;;;;;;;;5050909;28;19992;-75
2021/01/10 13:03:48;;;;;;;;;;;;;;;;;;5041283;28;19925;-75
2021/01/10 13:06:14;;;;;;;;;;;;;;;;;;5046938;28;20317;-76
2021/01/10 13:08:40;;;;;;;;;;;;;;;;;;5050090;28;19925;-74
2021/01/10 13:11:07;;;;;;;;;;;;;;;;;;5048500;28;19924;-73
2021/01/10 13:13:33;;;;;;;;;;;;;;;;;;5051121;28;19932;-74
2021/01/10 13:15:59;;;;;;;;;;;;;;;;;;5048361;28;19936;-76
2021/01/10 13:18:26;;;;;;;;;;;;;;;;;;5050192;28;20374;-75
2021/01/10 13:20:52;;;;;;;;;;;;;;;;;;5039327;28;19924;-74
2021/01/10 13:23:18;;;;;;;;;;;;;;;;;;5049042;28;19925;-74
2021/01/10 13:25:44;;;;;;;;;;;;;;;;;;5047751;28;19947;-74
2021/01/10 13:28:13;;;;;;;;;;;;;;;;;;5048250;28;20376;-74
2021/01/10 13:30:38;;;;;;;;;;;;;;;;;;5051955;28;19950;-74
2021/01/10 13:33:04;;;;;;;;;;;;;;;;;;5047997;28;19924;-75
2021/01/10 13:35:31;;;;;;;;;;;;;;;;;;5052687;28;19925;-75
2021/01/10 13:37:57;;;;;;;;;;;;;;;;;;5045689;28;19931;-75
2021/01/10 13:40:23;;;;;;;;;;;;;;;;;;5049699;28;19929;-74
2021/01/10 13:42:49;;;;;;;;;;;;;;;;;;5049266;28;20317;-75
2021/01/10 13:45:15;;;;;;;;;;;;;;;;;;5050798;28;19935;-76
2021/01/10 13:47:41;;;;;;;;;;;;;;;;;;5052394;28;19936;-76
2021/01/10 13:50:07;;;;;;;;;;;;;;;;;;5042967;28;19932;-75
2021/01/10 13:52:33;;;;;;;;;;;;;;;;;;5054366;28;19978;-75
2021/01/10 13:54:59;;;;;;;;;;;;;;;;;;5051685;28;19936;-74
2021/01/10 13:57:26;;;;;;;;;;;;;;;;;;5053865;28;19924;-74
2021/01/10 13:59:52;;;;;;;;;;;;;;;;;;5050394;28;19925;-74
2021/01/10 14:02:18;;;;;;;;;;;;;;;;;;5050703;28;19924;-74
2021/01/10 14:04:43;;;;;;;;;;;;;;;;;;5052675;28;19925;-73
2021/01/10 14:07:09;;;;;;;;;;;;;;;;;;5051166;28;20118;-73
2021/01/10 14:09:35;;;;;;;;;;;;;;;;;;5071915;28;19924;-73
2021/01/10 14:12:01;;;;;;;;;;;;;;;;;;5069459;28;19931;-74
2021/01/10 14:14:27;;;;;;;;;;;;;;;;;;5072224;28;20340;-74
2021/01/10 14:16:53;;;;;;;;;;;;;;;;;;5070791;28;19947;-74
2021/01/10 14:19:19;;;;;;;;;;;;;;;;;;5072519;28;19924;-75
2021/01/10 14:21:45;;;;;;;;;;;;;;;;;;5067536;28;19931;-74
2021/01/10 14:24:12;;;;;;;;;;;;;;;;;;5044805;28;19987;-74
2021/01/10 14:26:38;;;;;;;;;;;;;;;;;;5053462;28;19947;-75
2021/01/10 14:29:04;;;;;;;;;;;;;;;;;;5048990;28;19924;-73
2021/01/10 14:31:30;;;;;;;;;;;;;;;;;;5051391;28;19925;-72
2021/01/10 14:33:56;;;;;;;;;;;;;;;;;;5065987;28;19925;-73
2021/01/10 14:36:22;;;;;;;;;;;;;;;;;;5071927;28;19931;-73
2021/01/10 14:38:48;;;;;;;;;;;;;;;;;;5044504;28;19931;-74
2021/01/10 14:41:13;;;;;;;;;;;;;;;;;;5050038;28;20352;-74
2021/01/10 14:43:39;;;;;;;;;;;;;;;;;;5052073;28;19932;-73
2021/01/10 14:46:05;;;;;;;;;;;;;;;;;;5048387;28;20283;-74
2021/01/10 14:48:31;;;;;;;;;;;;;;;;;;5053274;28;19925;-74
2021/01/10 14:50:57;;;;;;;;;;;;;;;;;;5049288;28;19924;-74
2021/01/10 14:53:23;;;;;;;;;;;;;;;;;;5045777;28;19947;-75
2021/01/10 14:55:50;;;;;;;;;;;;;;;;;;5069140;28;20321;-74
2021/01/10 14:58:16;;;;;;;;;;;;;;;;;;5068569;28;19939;-74
2021/01/10 15:00:42;;;;;;;;;;;;;;;;;;5070048;28;19928;-75
2021/01/10 15:03:08;;;;;;;;;;;;;;;;;;5068185;28;20333;-74
2021/01/10 15:05:34;;;;;;;;;;;;;;;;;;5070578;28;19974;-74
2021/01/10 15:08:00;;;;;;;;;;;;;;;;;;5067034;28;20329;-73
2021/01/10 15:10:25;;;;;;;;;;;;;;;;;;5058333;28;19924;-74
2021/01/10 15:12:51;;;;;;;;;;;;;;;;;;5067508;28;19924;-74
2021/01/10 15:15:17;;;;;;;;;;;;;;;;;;5069556;28;19925;-76
2021/01/10 15:17:43;;;;;;;;;;;;;;;;;;5068389;28;20278;-75
2021/01/10 15:20:09;;;;;;;;;;;;;;;;;;5066660;28;20617;-74
2021/01/10 15:22:35;;;;;;;;;;;;;;;;;;5068961;28;19924;-74
2021/01/10 15:25:01;;;;;;;;;;;;;;;;;;5045141;28;19925;-73
2021/01/10 15:27:27;;;;;;;;;;;;;;;;;;5048192;28;19935;-74
2021/01/10 15:29:53;;;;;;;;;;;;;;;;;;5045925;28;19932;-74
2021/01/10 15:32:19;;;;;;;;;;;;;;;;;;5062504;28;19924;-74
2021/01/10 15:34:45;;;;;;;;;;;;;;;;;;5067531;28;20289;-73
2021/01/10 15:37:11;;;;;;;;;;;;;;;;;;5066842;28;19924;-74
2021/01/10 15:39:36;;;;;;;;;;;;;;;;;;5052269;28;19929;-74
2021/01/10 15:42:03;;;;;;;;;;;;;;;;;;5045128;28;19924;-74
2021/01/10 15:44:29;;;;;;;;;;;;;;;;;;5049029;28;19925;-74
2021/01/10 15:46:54;;;;;;;;;;;;;;;;;;5045859;28;19999;-73
2021/01/10 15:49:20;;;;;;;;;;;;;;;;;;5047624;28;20386;-74
2021/01/10 15:51:46;;;;;;;;;;;;;;;;;;5046825;28;19925;-74
2021/01/10 15:54:12;;;;;;;;;;;;;;;;;;5046534;28;19928;-73
2021/01/10 15:56:38;;;;;;;;;;;;;;;;;;5040642;28;19925;-73
2021/01/10 15:59:04;;;;;;;;;;;;;;;;;;5044250;28;20483;-74
2021/01/10 16:01:30;;;;;;;;;;;;;;;;;;5048043;28;19959;-74
2021/01/10 16:03:56;;;;;;;;;;;;;;;;;;5044813;28;19951;-73
2021/01/10 16:06:22;;;;;;;;;;;;;;;;;;5050732;28;19974;-73
2021/01/10 16:08:48;;;;;;;;;;;;;;;;;;5046635;28;19932;-73
2021/01/10 16:11:15;;;;;;;;;;;;;;;;;;5040827;28;19932;-75
2021/01/10 16:13:41;;;;;;;;;;;;;;;;;;5068294;28;19924;-74
2021/01/10 16:16:07;;;;;;;;;;;;;;;;;;5066800;28;19978;-73
2021/01/10 16:18:33;;;;;;;;;;;;;;;;;;5069475;28;19924;-73
2021/01/10 16:20:59;;;;;;;;;;;;;;;;;;5066295;28;19970;-72
2021/01/10 16:23:25;;;;;;;;;;;;;;;;;;5069265;28;19925;-74
2021/01/10 16:25:51;;;;;;;;;;;;;;;;;;5067443;28;19928;-73
2021/01/10 16:28:17;;;;;;;;;;;;;;;;;;5045250;28;20271;-74
2021/01/10 16:30:43;;;;;;;;;;;;;;;;;;5060636;28;20206;-75
2021/01/10 16:33:09;;;;;;;;;;;;;;;;;;5065426;28;20421;-75
2021/01/10 16:35:35;;;;;;;;;;;;;;;;;;5068299;28;19924;-73